Time;durP1;ratioP1;P1;durP2;ratioP2;P2;SDS_P1;SDS_P2;PMS_P1;PMS_P2;Temp;Humidity;BMP_temperature;BMP_pressure;BME280_temperature;BME280_humidity;BME280_pressure;Samples;Min_cycle;Max_cycle;Signal;HPM_P1;HPM_P2
2021/10/24 00:00:29;;;;;;;0.30;0.30;;;;;;;10.86;100.00;100236.56;5017200;28;20033;-81
2021/10/24 00:02:56;;;;;;;0.45;0.45;;;;;;;10.88;100.00;100241.75;5051276;28;20032;-84
2021/10/24 00:05:22;;;;;;;0.30;0.30;;;;;;;10.80;100.00;100231.94;5017041;28;20471;-82
2021/10/24 00:07:48;;;;;;;0.30;0.30;;;;;;;10.78;100.00;100228.63;5033665;28;20098;-81
2021/10/24 00:10:14;;;;;;;0.25;0.25;;;;;;;10.76;100.00;100234.16;5051352;28;20116;-83
2021/10/24 00:12:39;;;;;;;0.30;0.30;;;;;;;10.70;100.00;100234.09;5033767;28;20040;-82
2021/10/24 00:15:06;;;;;;;1.75;1.65;;;;;;;10.66;100.00;100225.56;5033283;28;20025;-82
2021/10/24 00:17:33;;;;;;;0.35;0.35;;;;;;;10.63;100.00;100233.19;5017158;28;20075;-80
2021/10/24 00:19:59;;;;;;;0.30;0.30;;;;;;;10.58;100.00;100231.06;5050930;28;20137;-82
2021/10/24 00:22:24;;;;;;;0.30;0.30;;;;;;;10.59;100.00;100226.53;5033623;28;20467;-83
2021/10/24 00:24:50;;;;;;;0.30;0.30;;;;;;;10.56;100.00;100225.88;5033596;28;20531;-82
2021/10/24 00:27:16;;;;;;;0.30;0.30;;;;;;;10.53;100.00;100241.53;5051043;28;20037;-82
2021/10/24 00:29:41;;;;;;;0.30;0.30;;;;;;;10.48;100.00;100233.25;5050979;28;20029;-83
2021/10/24 00:32:07;;;;;;;0.38;0.38;;;;;;;10.46;100.00;100230.72;5000554;28;20033;-80
2021/10/24 00:34:33;;;;;;;1.63;1.63;;;;;;;10.41;100.00;100205.44;5033235;28;20040;-80
2021/10/24 00:36:59;;;;;;;0.30;0.30;;;;;;;10.44;100.00;100223.88;5033230;28;20116;-82
2021/10/24 00:39:24;;;;;;;0.30;0.30;;;;;;;10.38;100.00;100217.41;5033580;28;20037;-82
2021/10/24 00:41:51;;;;;;;0.40;0.40;;;;;;;10.31;100.00;100217.28;5033308;28;20445;-80
2021/10/24 00:44:31;;;;;;;0.30;0.30;;;;;;;10.34;100.00;100216.09;5033641;28;20033;-83
2021/10/24 00:46:58;;;;;;;0.30;0.30;;;;;;;10.26;100.00;100208.09;5000288;28;20078;-83
2021/10/24 00:49:24;;;;;;;0.32;0.32;;;;;;;10.26;100.00;100208.09;5016975;28;20041;-82
2021/10/24 00:51:52;;;;;;;0.30;0.30;;;;;;;10.18;100.00;100211.72;5016525;28;20029;-82
2021/10/24 00:54:23;;;;;;;1.00;1.00;;;;;;;10.18;100.00;100205.53;5016902;28;20471;-81
2021/10/24 00:56:51;;;;;;;0.30;0.30;;;;;;;10.10;100.00;100199.22;5016443;28;20423;-83
2021/10/24 00:59:16;;;;;;;0.47;0.47;;;;;;;10.09;100.00;100202.94;5033195;28;20029;-83
2021/10/24 01:01:43;;;;;;;0.25;0.25;;;;;;;10.09;100.00;100202.94;5016710;28;20033;-82
2021/10/24 01:04:08;;;;;;;0.25;0.25;;;;;;;10.07;100.00;100204.97;5000702;28;20069;-82
2021/10/24 01:06:36;;;;;;;0.38;0.38;;;;;;;10.08;100.00;100205.78;5016465;28;20401;-80
2021/10/24 01:09:13;;;;;;;0.40;0.40;;;;;;;10.10;100.00;100207.28;5033283;28;20039;-81
2021/10/24 01:11:41;;;;;;;0.30;0.30;;;;;;;10.11;100.00;100208.97;5000441;28;20037;-82
2021/10/24 01:14:07;;;;;;;0.30;0.30;;;;;;;10.08;100.00;100212.03;5033436;28;20033;-82
2021/10/24 01:16:35;;;;;;;0.20;0.20;;;;;;;10.06;100.00;100203.31;5032649;28;20116;-81
2021/10/24 01:19:02;;;;;;;0.30;0.30;;;;;;;10.07;100.00;100202.28;5016695;28;20072;-82
2021/10/24 01:21:28;;;;;;;0.30;0.30;;;;;;;10.13;100.00;100209.63;5016505;28;20033;-79
2021/10/24 01:23:53;;;;;;;0.30;0.30;;;;;;;10.16;100.00;100205.72;5016306;28;20029;-80
2021/10/24 01:26:19;;;;;;;0.30;0.30;;;;;;;10.24;100.00;100210.13;5032682;28;20040;-83
2021/10/24 01:28:45;;;;;;;0.30;0.30;;;;;;;10.25;100.00;100207.28;5016577;28;20661;-79
2021/10/24 01:31:11;;;;;;;0.28;0.28;;;;;;;10.29;100.00;100214.00;5019589;28;20029;-81
2021/10/24 01:33:37;;;;;;;0.30;0.30;;;;;;;10.26;100.00;100203.56;5036555;28;20192;-81
2021/10/24 01:36:05;;;;;;;0.35;0.35;;;;;;;10.30;100.00;100217.50;5019927;28;20041;-81
2021/10/24 01:38:31;;;;;;;0.28;0.28;;;;;;;10.32;100.00;100212.78;5019853;28;20033;-81
2021/10/24 01:41:00;;;;;;;0.30;0.30;;;;;;;10.34;100.00;100210.72;5036159;28;20029;-79
2021/10/24 01:43:27;;;;;;;0.20;0.20;;;;;;;10.36;100.00;100213.22;5003377;28;20179;-82
2021/10/24 01:45:53;;;;;;;0.20;0.20;;;;;;;10.37;100.00;100199.59;5035867;28;20029;-83
2021/10/24 01:48:20;;;;;;;0.35;0.35;;;;;;;10.33;100.00;100184.88;5019277;28;20055;-84
2021/10/24 01:50:47;;;;;;;0.30;0.30;;;;;;;10.43;100.00;100204.22;5019655;28;20094;-83
2021/10/24 01:53:36;;;;;;;0.30;0.30;;;;;;;10.49;100.00;100203.47;5019614;28;20029;-82
2021/10/24 01:56:02;;;;;;;0.45;0.45;;;;;;;10.49;100.00;100197.25;5018320;28;20044;-84
2021/10/24 01:58:28;;;;;;;0.30;0.30;;;;;;;10.43;100.00;100198.84;5035914;28;20029;-81
2021/10/24 02:00:54;;;;;;;0.50;0.50;;;;;;;10.49;100.00;100195.41;5035786;28;20078;-81
2021/10/24 02:03:22;;;;;;;0.30;0.30;;;;;;;10.49;100.00;100192.72;5035511;28;20025;-83
2021/10/24 02:05:50;;;;;;;0.30;0.30;;;;;;;10.46;100.00;100185.03;5035972;28;20128;-85
2021/10/24 02:08:17;;;;;;;0.30;0.30;;;;;;;10.39;100.00;100175.22;5035795;28;20569;-83
2021/10/24 02:10:43;;;;;;;0.30;0.30;;;;;;;10.39;100.00;100186.81;5035494;28;20075;-82
2021/10/24 02:13:09;;;;;;;0.30;0.30;;;;;;;10.30;100.00;100177.19;5035487;28;20111;-81
2021/10/24 02:15:35;;;;;;;0.32;0.32;;;;;;;10.32;100.00;100173.31;5035914;28;20106;-82
2021/10/24 02:18:05;;;;;;;0.40;0.40;;;;;;;10.28;100.00;100176.53;5053291;28;20033;-80
2021/10/24 02:20:34;;;;;;;0.30;0.30;;;;;;;10.22;100.00;100161.97;5018795;28;20402;-83
2021/10/24 02:23:00;;;;;;;1.45;0.40;;;;;;;10.27;100.00;100161.41;5035366;28;20079;-83
2021/10/24 02:25:26;;;;;;;0.30;0.30;;;;;;;10.19;100.00;100165.03;5002889;28;20033;-84
2021/10/24 02:27:52;;;;;;;0.30;0.30;;;;;;;10.17;100.00;100156.34;5035319;28;20462;-83
2021/10/24 02:30:18;;;;;;;0.30;0.30;;;;;;;10.12;100.00;100154.19;5035247;28;20033;-81
2021/10/24 02:32:44;;;;;;;0.30;0.30;;;;;;;10.15;100.00;100152.16;5035299;28;20103;-82
2021/10/24 02:35:11;;;;;;;0.32;0.32;;;;;;;10.06;100.00;100136.16;5035238;28;20133;-83
2021/10/24 02:37:37;;;;;;;0.60;0.60;;;;;;;10.04;100.00;100134.69;5035266;28;20029;-83
2021/10/24 02:40:04;;;;;;;0.40;0.40;;;;;;;10.02;100.00;100145.59;5052848;28;20090;-82
2021/10/24 02:42:29;;;;;;;0.40;0.35;;;;;;;9.98;100.00;100146.19;5018411;28;20545;-83
2021/10/24 02:44:55;;;;;;;0.35;0.32;;;;;;;9.97;100.00;100142.63;5018655;28;20176;-82
2021/10/24 02:47:24;;;;;;;0.35;0.35;;;;;;;9.97;100.00;100134.59;5052678;28;20025;-83
2021/10/24 02:49:50;;;;;;;0.30;0.30;;;;;;;9.99;100.00;100137.91;5034970;28;20208;-82
2021/10/24 02:52:15;;;;;;;0.32;0.32;;;;;;;9.95;100.00;100127.72;5001898;28;20132;-81
2021/10/24 02:54:42;;;;;;;1.00;0.88;;;;;;;9.96;100.00;100132.94;5034553;28;20482;-80
2021/10/24 02:57:07;;;;;;;0.40;0.40;;;;;;;9.98;100.00;100133.59;5034905;28;20497;-81
2021/10/24 02:59:33;;;;;;;0.30;0.30;;;;;;;10.00;100.00;100130.69;5034686;28;20026;-81
2021/10/24 03:02:00;;;;;;;0.40;0.40;;;;;;;9.98;100.00;100128.22;5034695;28;20433;-82
2021/10/24 03:04:27;;;;;;;2.65;0.47;;;;;;;9.99;100.00;100132.56;5001921;28;20051;-81
2021/10/24 03:06:53;;;;;;;0.40;0.40;;;;;;;9.95;100.00;100131.28;5052192;28;20033;-82
2021/10/24 03:09:19;;;;;;;0.30;0.30;;;;;;;9.96;100.00;100146.34;5034219;28;20107;-82
2021/10/24 03:11:45;;;;;;;0.40;0.40;;;;;;;9.93;100.00;100136.00;5018172;28;20111;-81
2021/10/24 03:14:10;;;;;;;0.43;0.43;;;;;;;9.93;100.00;100129.78;5034263;28;20472;-80
2021/10/24 03:16:36;;;;;;;1.55;0.50;;;;;;;9.97;100.00;100139.94;5034329;28;20386;-80
2021/10/24 03:19:02;;;;;;;0.32;0.32;;;;;;;9.99;100.00;100147.84;5051877;28;20462;-81
2021/10/24 03:21:29;;;;;;;0.30;0.30;;;;;;;10.00;100.00;100153.03;5034199;28;20041;-81
2021/10/24 03:23:57;;;;;;;0.30;0.30;;;;;;;10.03;100.00;100144.59;5018093;28;20037;-82
2021/10/24 03:26:23;;;;;;;0.30;0.30;;;;;;;10.06;100.00;100133.47;5034520;28;20035;-82
2021/10/24 03:28:49;;;;;;;0.30;0.30;;;;;;;10.07;100.00;100145.03;5018003;28;20033;-80
2021/10/24 03:31:14;;;;;;;0.40;0.40;;;;;;;10.07;100.00;100137.81;5001430;28;20037;-80
2021/10/24 03:33:40;;;;;;;1.20;0.80;;;;;;;10.09;100.00;100127.72;5034044;28;20467;-81
2021/10/24 03:36:06;;;;;;;0.98;0.95;;;;;;;10.12;100.00;100127.34;5033759;28;20064;-82
2021/10/24 03:38:32;;;;;;;0.45;0.45;;;;;;;10.11;100.00;100128.38;5051722;28;20040;-82
2021/10/24 03:40:57;;;;;;;3.10;0.77;;;;;;;10.11;100.00;100123.00;5033987;28;20068;-83
2021/10/24 03:43:23;;;;;;;0.30;0.30;;;;;;;10.17;100.00;100123.28;5001404;28;20110;-80
2021/10/24 03:45:49;;;;;;;0.40;0.40;;;;;;;10.17;100.00;100128.63;5033724;28;20504;-82
2021/10/24 03:48:15;;;;;;;0.30;0.30;;;;;;;10.17;100.00;100129.47;5051524;28;20033;-81
2021/10/24 03:50:40;;;;;;;0.47;0.47;;;;;;;10.11;100.00;100125.69;5033877;28;20608;-82
2021/10/24 03:53:06;;;;;;;0.93;0.88;;;;;;;10.13;100.00;100128.16;5051153;28;20048;-80
2021/10/24 03:55:31;;;;;;;0.70;0.70;;;;;;;10.10;100.00;100133.91;5033672;28;20050;-82
2021/10/24 03:57:57;;;;;;;0.50;0.50;;;;;;;10.08;100.00;100122.53;5017286;28;20485;-83
2021/10/24 04:00:23;;;;;;;0.40;0.40;;;;;;;10.08;100.00;100131.44;5033541;28;20086;-81
2021/10/24 04:02:59;;;;;;;0.38;0.38;;;;;;;10.11;100.00;100127.53;5051366;28;20029;-82
2021/10/24 04:05:26;;;;;;;1.83;0.93;;;;;;;10.08;100.00;100123.38;5017379;28;20597;-82
2021/10/24 04:07:55;;;;;;;0.50;0.50;;;;;;;10.00;100.00;100118.13;5001780;28;20048;-83
2021/10/24 04:10:22;;;;;;;0.98;0.70;;;;;;;10.02;100.00;100118.75;5033748;28;20025;-83
2021/10/24 04:12:48;;;;;;;1.25;0.57;;;;;;;10.02;100.00;100124.13;5033731;28;20035;-80
2021/10/24 04:15:15;;;;;;;4.65;1.75;;;;;;;10.03;100.00;100133.00;5033327;28;20032;-81
2021/10/24 04:17:40;;;;;;;0.82;0.68;;;;;;;10.02;100.00;100121.44;5033268;28;20033;-82
2021/10/24 04:20:08;;;;;;;0.68;0.68;;;;;;;9.98;100.00;100120.16;5033213;28;20367;-81
2021/10/24 04:22:37;;;;;;;0.43;0.43;;;;;;;9.98;100.00;100124.69;5033429;28;20543;-81
2021/10/24 04:25:05;;;;;;;1.38;1.17;;;;;;;9.94;100.00;100124.22;5032862;28;20036;-81
2021/10/24 04:27:31;;;;;;;1.50;1.08;;;;;;;9.94;100.00;100121.53;5033213;28;20078;-81
2021/10/24 04:29:57;;;;;;;2.38;1.40;;;;;;;9.94;100.00;100126.91;5050982;28;20029;-83
2021/10/24 04:32:23;;;;;;;1.88;0.88;;;;;;;9.89;100.00;100122.09;5016706;28;20103;-83
2021/10/24 04:34:48;;;;;;;2.05;0.77;;;;;;;9.86;100.00;100127.84;5017133;28;20029;-83
2021/10/24 04:37:14;;;;;;;5.88;0.93;;;;;;;9.79;100.00;100126.06;5050997;28;20025;-81
2021/10/24 04:39:40;;;;;;;5.35;1.00;;;;;;;9.81;100.00;100127.56;5051280;28;20036;-83
2021/10/24 04:42:05;;;;;;;0.52;0.52;;;;;;;9.77;100.00;100133.50;5033339;28;20462;-80
2021/10/24 04:44:31;;;;;;;0.63;0.60;;;;;;;9.75;100.00;100127.50;5033129;28;20036;-82
2021/10/24 04:46:57;;;;;;;1.92;1.50;;;;;;;9.78;100.00;100137.84;5032900;28;20033;-80
2021/10/24 04:49:22;;;;;;;0.85;0.43;;;;;;;9.77;100.00;100134.34;5051215;28;20032;-82
2021/10/24 04:51:48;;;;;;;0.75;0.70;;;;;;;9.69;100.00;100129.91;5016937;28;20523;-82
2021/10/24 04:54:14;;;;;;;7.03;0.95;;;;;;;9.63;100.00;100130.66;5033394;28;20444;-83
2021/10/24 04:56:39;;;;;;;1.60;0.80;;;;;;;9.65;100.00;100133.94;5033407;28;20368;-81
2021/10/24 04:59:05;;;;;;;0.63;0.47;;;;;;;9.66;100.00;100143.69;5050803;28;20024;-83
2021/10/24 05:01:31;;;;;;;1.75;0.95;;;;;;;9.62;100.00;100145.06;5000136;28;20060;-82
2021/10/24 05:03:56;;;;;;;1.20;0.85;;;;;;;9.59;100.00;100147.28;5016614;28;20021;-82
2021/10/24 05:06:22;;;;;;;0.95;0.88;;;;;;;9.57;100.00;100144.78;5036421;28;20082;-82
2021/10/24 05:08:48;;;;;;;12.77;1.02;;;;;;;9.58;100.00;100146.47;5004394;28;20037;-83
2021/10/24 05:11:14;;;;;;;5.07;1.05;;;;;;;9.58;100.00;100148.28;5036767;28;20441;-80
2021/10/24 05:13:39;;;;;;;1.55;1.15;;;;;;;9.58;100.00;100151.84;5036654;28;20057;-82
2021/10/24 05:16:05;;;;;;;3.65;0.88;;;;;;;9.55;100.00;100149.53;5020024;28;20033;-80
2021/10/24 05:18:31;;;;;;;6.78;1.25;;;;;;;9.49;100.00;100144.88;5020375;28;20028;-82
2021/10/24 05:20:57;;;;;;;6.35;1.20;;;;;;;9.50;100.00;100149.25;5054299;28;20453;-82
2021/10/24 05:23:23;;;;;;;0.40;0.40;;;;;;;9.52;100.00;100155.22;5036399;28;20111;-82
2021/10/24 05:25:48;;;;;;;3.85;1.08;;;;;;;9.48;100.00;100145.91;5020098;28;20124;-82
2021/10/24 05:28:14;;;;;;;0.40;0.40;;;;;;;9.46;100.00;100150.59;5036179;28;20029;-83
2021/10/24 05:30:39;;;;;;;6.22;0.93;;;;;;;9.44;100.00;100149.94;5054366;28;20040;-81
2021/10/24 05:33:05;;;;;;;2.97;1.75;;;;;;;9.39;100.00;100153.22;5054115;28;20300;-78
2021/10/24 05:35:31;;;;;;;3.92;0.60;;;;;;;9.34;100.00;100144.88;5020038;28;20071;-83
2021/10/24 05:37:57;;;;;;;2.15;0.65;;;;;;;9.32;100.00;100146.91;5053874;28;20574;-83
2021/10/24 05:40:23;;;;;;;6.75;2.72;;;;;;;9.26;100.00;100134.19;5036394;28;20387;-82
2021/10/24 05:42:49;;;;;;;1.13;0.88;;;;;;;9.25;100.00;100145.94;5053722;28;20378;-80
2021/10/24 05:45:14;;;;;;;1.55;0.90;;;;;;;9.17;100.00;100128.09;5019488;28;20029;-80
2021/10/24 05:47:40;;;;;;;4.57;1.05;;;;;;;9.16;100.00;100141.69;5035857;28;20033;-82
2021/10/24 05:50:06;;;;;;;1.95;1.77;;;;;;;9.13;100.00;100142.88;5053655;28;20036;-81
2021/10/24 05:52:32;;;;;;;0.95;0.95;;;;;;;9.13;100.00;100142.88;5019606;28;20529;-79
2021/10/24 05:55:00;;;;;;;0.55;0.47;;;;;;;9.09;100.00;100140.75;5036174;28;20037;-82
2021/10/24 05:57:25;;;;;;;3.45;1.73;;;;;;;9.05;100.00;100137.59;5019355;28;20041;-81
2021/10/24 05:59:51;;;;;;;0.30;0.30;;;;;;;8.96;100.00;100134.13;5019408;28;20047;-83
2021/10/24 06:02:17;;;;;;;0.85;0.85;;;;;;;9.02;100.00;100135.25;5003203;28;20120;-83
2021/10/24 06:04:42;;;;;;;2.17;1.05;;;;;;;9.05;100.00;100132.25;5003105;28;20039;-81
2021/10/24 06:07:09;;;;;;;0.55;0.52;;;;;;;9.07;100.00;100132.88;5019187;28;20028;-81
2021/10/24 06:15:07;;;;;;;2.95;0.80;;;;;;;9.07;100.00;100124.81;5038078;28;20501;-82
2021/10/24 06:17:34;;;;;;;3.42;0.98;;;;;;;9.11;100.00;100128.00;5018927;28;20032;-82
2021/10/24 06:20:00;;;;;;;1.83;0.68;;;;;;;9.17;100.00;100122.72;5002520;28;20025;-82
2021/10/24 06:22:26;;;;;;;1.45;0.68;;;;;;;9.19;100.00;100126.06;5035451;28;20036;-83
2021/10/24 06:24:53;;;;;;;9.60;0.93;;;;;;;9.15;100.00;100135.47;5035143;28;20039;-80
2021/10/24 06:27:19;;;;;;;9.90;1.00;;;;;;;9.12;100.00;100137.69;5035204;28;20029;-81
2021/10/24 06:29:44;;;;;;;0.43;0.43;;;;;;;9.03;100.00;100132.41;5035240;28;20206;-83
2021/10/24 06:32:10;;;;;;;0.60;0.60;;;;;;;9.08;100.00;100147.13;5035430;28;20028;-81
2021/10/24 06:34:35;;;;;;;6.80;1.40;;;;;;;9.09;100.00;100144.25;5034978;28;20037;-81
2021/10/24 06:37:01;;;;;;;1.50;0.77;;;;;;;9.15;100.00;100143.50;5018552;28;20036;-82
2021/10/24 06:39:27;;;;;;;4.85;1.27;;;;;;;9.21;100.00;100150.84;5018750;28;20025;-83
2021/10/24 06:41:53;;;;;;;5.85;1.63;;;;;;;9.19;100.00;100147.50;5034949;28;20033;-82
2021/10/24 06:44:18;;;;;;;12.80;0.77;;;;;;;9.19;100.00;100141.31;5034973;28;20029;-80
2021/10/24 06:46:44;;;;;;;0.73;0.68;;;;;;;9.11;100.00;100131.50;5018688;28;20029;-81
2021/10/24 06:49:10;;;;;;;0.75;0.75;;;;;;;9.13;100.00;100147.41;5034992;28;20490;-79
2021/10/24 06:51:36;;;;;;;6.18;0.77;;;;;;;9.14;100.00;100149.91;5034897;28;20490;-82
2021/10/24 06:54:02;;;;;;;1.35;0.75;;;;;;;9.22;100.00;100141.78;5002361;28;20036;-83
2021/10/24 06:56:28;;;;;;;0.95;0.95;;;;;;;9.08;100.00;100137.22;5034822;28;20108;-81
2021/10/24 06:58:54;;;;;;;0.60;0.60;;;;;;;9.22;100.00;100155.19;5052524;28;20121;-82
2021/10/24 07:01:19;;;;;;;1.50;1.02;;;;;;;9.23;100.00;100147.97;5052686;28;20478;-81
2021/10/24 07:03:45;;;;;;;11.77;1.40;;;;;;;9.27;100.00;100159.19;5018333;28;20032;-81
2021/10/24 07:06:11;;;;;;;3.33;0.40;;;;;;;9.32;100.00;100151.44;5034699;28;20532;-80
2021/10/24 07:08:37;;;;;;;1.02;0.77;;;;;;;9.37;100.00;100149.88;5034240;28;20113;-80
2021/10/24 07:11:03;;;;;;;2.22;1.27;;;;;;;9.43;100.00;100153.66;5034206;28;20071;-83
2021/10/24 07:13:28;;;;;;;5.43;0.95;;;;;;;9.38;100.00;100139.97;5034303;28;20055;-82
2021/10/24 07:15:54;;;;;;;21.98;1.77;;;;;;;9.48;100.00;100140.53;5017888;28;20032;-84
2021/10/24 07:18:20;;;;;;;1.58;1.25;;;;;;;9.47;100.00;100152.25;5017783;28;20475;-83
2021/10/24 07:20:45;;;;;;;0.60;0.60;;;;;;;9.47;100.00;100160.31;5017596;28;20083;-78
2021/10/24 07:23:11;;;;;;;1.92;1.02;;;;;;;9.45;100.00;100151.63;5017801;28;20044;-83
2021/10/24 07:25:37;;;;;;;7.13;1.80;;;;;;;9.50;100.00;100151.06;5017758;28;20064;-81
2021/10/24 07:28:03;;;;;;;0.47;0.45;;;;;;;9.51;100.00;100161.63;5033579;28;20025;-82
2021/10/24 07:30:29;;;;;;;5.78;1.33;;;;;;;9.55;100.00;100162.94;5017498;28;20037;-82
2021/10/24 07:32:55;;;;;;;5.40;2.10;;;;;;;9.55;100.00;100168.31;5051924;28;20037;-82
2021/10/24 07:35:21;;;;;;;0.70;0.70;;;;;;;9.52;100.00;100163.28;5033567;28;20041;-83
2021/10/24 07:37:48;;;;;;;4.97;1.90;;;;;;;9.51;100.00;100166.16;5034214;28;20031;-82
2021/10/24 07:40:14;;;;;;;12.45;1.83;;;;;;;9.45;100.00;100157.00;5033936;28;20024;-80
2021/10/24 07:42:40;;;;;;;1.30;0.93;;;;;;;9.46;100.00;100162.16;5051679;28;20025;-82
2021/10/24 07:45:07;;;;;;;1.40;1.02;;;;;;;9.41;100.00;100161.88;5033798;28;20056;-82
2021/10/24 07:47:35;;;;;;;7.47;0.95;;;;;;;9.45;100.00;100176.63;5017509;28;20107;-79
2021/10/24 07:50:02;;;;;;;3.35;1.15;;;;;;;9.42;100.00;100170.75;5033540;28;20562;-81
2021/10/24 07:52:28;;;;;;;2.75;1.38;;;;;;;9.50;100.00;100172.53;5017523;28;20112;-83
2021/10/24 07:54:53;;;;;;;3.53;1.05;;;;;;;9.52;100.00;100178.56;5016885;28;20131;-82
2021/10/24 07:57:20;;;;;;;4.75;1.45;;;;;;;9.52;100.00;100182.06;5033789;28;20029;-82
2021/10/24 07:59:47;;;;;;;1.27;0.75;;;;;;;9.51;100.00;100175.06;5033793;28;20033;-82
2021/10/24 08:02:13;;;;;;;1.20;0.82;;;;;;;9.54;100.00;100173.84;5000943;28;20029;-81
2021/10/24 08:04:38;;;;;;;9.32;2.35;;;;;;;9.58;100.00;100189.41;5050987;28;20029;-81
2021/10/24 08:07:05;;;;;;;13.88;1.95;;;;;;;9.59;100.00;100196.44;5033433;28;20281;-81
2021/10/24 08:09:31;;;;;;;1.08;0.75;;;;;;;9.60;100.00;100181.16;5033753;28;20115;-80
2021/10/24 08:11:58;;;;;;;3.35;1.00;;;;;;;9.69;100.00;100188.94;5017027;28;20048;-82
2021/10/24 08:14:23;;;;;;;3.72;1.23;;;;;;;9.78;100.00;100196.91;5033427;28;20040;-81
2021/10/24 08:16:49;;;;;;;4.30;2.08;;;;;;;9.82;100.00;100187.50;5033424;28;20036;-82
2021/10/24 08:19:15;;;;;;;2.58;1.17;;;;;;;9.86;100.00;100194.13;5033326;28;20112;-82
2021/10/24 08:21:41;;;;;;;2.38;1.33;;;;;;;9.90;100.00;100201.66;5016724;28;20048;-80
2021/10/24 08:24:07;;;;;;;4.00;1.70;;;;;;;9.92;100.00;100190.69;5051251;28;20477;-82
2021/10/24 08:26:33;;;;;;;4.97;1.58;;;;;;;9.95;100.00;100192.19;5033354;28;20035;-80
2021/10/24 08:28:58;;;;;;;12.57;1.33;;;;;;;9.93;100.00;100184.34;5017050;28;20118;-81
2021/10/24 08:31:26;;;;;;;7.43;1.80;;;;;;;9.98;100.00;100184.63;5016872;28;20032;-82
2021/10/24 08:33:53;;;;;;;15.35;2.47;;;;;;;10.06;100.00;100197.94;5033622;28;20104;-82
2021/10/24 08:36:19;;;;;;;8.48;1.60;;;;;;;10.10;100.00;100190.34;5033391;28;20536;-80
2021/10/24 08:38:44;;;;;;;2.85;2.08;;;;;;;10.18;100.00;100197.47;5034361;28;20029;-80
2021/10/24 08:41:12;;;;;;;7.38;2.05;;;;;;;10.25;100.00;100206.44;5055232;28;20025;-80
2021/10/24 08:43:39;;;;;;;3.42;1.48;;;;;;;10.32;100.00;100207.41;5020958;28;20083;-82
2021/10/24 08:46:05;;;;;;;10.15;2.70;;;;;;;10.35;100.00;100190.91;5037379;28;20028;-81
2021/10/24 08:48:34;;;;;;;6.60;1.20;;;;;;;10.48;100.00;100201.81;5037135;28;20051;-82
2021/10/24 08:51:00;;;;;;;8.07;2.13;;;;;;;10.49;100.00;100191.88;5021031;28;20037;-83
2021/10/24 08:53:27;;;;;;;3.97;1.35;;;;;;;10.63;100.00;100207.13;5020822;28;20334;-82
2021/10/24 08:55:53;;;;;;;12.30;1.83;;;;;;;10.66;100.00;100201.38;5037000;28;20364;-81
2021/10/24 08:58:20;;;;;;;2.67;0.77;;;;;;;10.72;100.00;100195.25;5037299;28;20166;-82
2021/10/24 09:00:47;;;;;;;12.07;2.47;;;;;;;10.79;100.00;100198.81;5036788;28;20031;-82
2021/10/24 09:03:13;;;;;;;8.70;1.48;;;;;;;10.86;100.00;100196.22;5037143;28;20033;-83
2021/10/24 09:05:40;;;;;;;17.15;2.33;;;;;;;10.93;100.00;100205.19;5036854;28;20147;-83
2021/10/24 09:08:17;;;;;;;7.07;1.58;;;;;;;10.99;100.00;100203.59;5036615;28;20029;-82
2021/10/24 09:10:45;;;;;;;10.05;1.60;;;;;;;11.02;100.00;100189.75;5037123;28;20025;-83
2021/10/24 09:13:23;;;;;;;11.23;2.35;;;;;;;11.14;100.00;100198.13;5054334;28;20025;-81
2021/10/24 09:15:53;;;;;;;18.02;2.40;;;;;;;11.20;100.00;100205.44;5004219;28;20037;-84
2021/10/24 09:18:32;;;;;;;18.60;3.58;;;;;;;11.26;100.00;100182.31;5036452;28;20112;-83
2021/10/24 09:21:15;;;;;;;12.18;2.45;;;;;;;11.41;100.00;100197.34;5036465;28;20111;-84
2021/10/24 09:23:50;;;;;;;15.93;2.75;;;;;;;11.47;100.00;100184.13;5036342;28;20059;-83
2021/10/24 09:26:24;;;;;;;17.00;2.70;;;;;;;11.56;100.00;100193.72;5004038;28;20498;-84
2021/10/24 09:29:16;;;;;;;11.93;1.92;;;;;;;11.65;100.00;100188.00;5036343;28;20569;-82
2021/10/24 09:31:43;;;;;;;;;;;;;;;11.73;100.00;100192.38;5032357;28;20045;-80
2021/10/24 09:34:22;;;;;;;15.40;2.95;;;;;;;11.75;100.00;100178.72;5036586;28;19909;-82
2021/10/24 09:36:58;;;;;;;17.70;3.40;;;;;;;11.68;100.00;100177.84;5019888;28;20029;-82
2021/10/24 09:39:28;;;;;;;22.02;2.40;;;;;;;11.61;100.00;100180.50;5019930;28;20155;-82
2021/10/24 09:42:17;;;;;;;11.80;2.00;;;;;;;11.73;100.00;100186.19;5036287;28;20474;-82
2021/10/24 09:45:06;;;;;;;11.38;1.17;;;;;;;11.83;100.00;100187.50;5036102;28;20033;-81
2021/10/24 09:47:39;;;;;;;18.73;3.72;;;;;;;11.88;100.00;100185.06;5036152;28;20468;-81
2021/10/24 09:50:07;;;;;;;20.60;2.58;;;;;;;12.00;100.00;100187.19;5035608;28;20045;-82
2021/10/24 09:52:34;;;;;;;18.15;3.33;;;;;;;12.05;100.00;100179.34;5035770;28;20029;-85
2021/10/24 09:55:02;;;;;;;17.25;2.55;;;;;;;12.18;100.00;100189.38;5019788;28;20025;-83
2021/10/24 09:57:29;;;;;;;16.17;3.20;;;;;;;12.32;100.00;100188.38;5019635;28;20036;-82
2021/10/24 09:59:55;;;;;;;21.85;3.40;;;;;;;12.36;100.00;100181.56;5003446;28;20036;-83
2021/10/24 10:02:22;;;;;;;18.52;3.15;;;;;;;12.44;100.00;100185.94;5003017;28;20037;-84
2021/10/24 10:04:48;;;;;;;7.38;1.52;;;;;;;12.49;100.00;100188.84;5035775;28;20079;-82
2021/10/24 10:07:14;;;;;;;19.90;3.08;;;;;;;12.59;100.00;100183.06;5053233;28;20025;-82
2021/10/24 10:09:44;;;;;;;13.23;2.38;;;;;;;12.67;100.00;100183.72;5019134;28;20501;-80
2021/10/24 10:12:17;;;;;;;15.25;2.28;;;;;;;12.75;100.00;100183.56;5019465;28;20028;-81
2021/10/24 10:14:44;;;;;;;21.80;2.20;;;;;;;12.78;100.00;100190.41;5019318;28;20033;-83
2021/10/24 10:17:13;;;;;;;15.65;2.30;;;;;;;12.85;100.00;100185.00;5018921;28;20090;-82
2021/10/24 10:19:42;;;;;;;9.65;2.22;;;;;;;12.88;100.00;100182.72;5002927;28;20032;-82
2021/10/24 10:22:26;;;;;;;16.38;2.67;;;;;;;12.90;100.00;100166.34;5018657;28;20037;-84
2021/10/24 10:24:58;;;;;;;15.05;2.03;;;;;;;12.97;100.00;100184.19;5019049;28;20063;-83
2021/10/24 10:27:27;;;;;;;13.75;1.90;;;;;;;12.98;100.00;100166.13;5035235;28;20029;-82
2021/10/24 10:30:00;;;;;;;10.30;1.75;;;;;;;13.11;100.00;100168.84;5035241;28;20037;-81
2021/10/24 10:32:46;;;;;;;14.85;2.60;;;;;;;13.14;99.85;100176.53;5002443;28;20041;-82
2021/10/24 10:35:13;;;;;;;12.75;2.17;;;;;;;13.23;99.17;100173.63;5035175;28;20039;-82
2021/10/24 10:37:55;;;;;;;15.73;2.50;;;;;;;13.39;98.25;100167.84;5052798;28;20439;-83
2021/10/24 10:40:33;;;;;;;12.70;1.90;;;;;;;13.52;98.26;100175.94;5018717;28;20051;-80
2021/10/24 10:43:02;;;;;;;11.98;3.30;;;;;;;13.64;98.00;100178.84;5034778;28;20352;-84
2021/10/24 10:45:33;;;;;;;14.25;2.47;;;;;;;13.87;97.55;100185.66;5018852;28;20033;-81
2021/10/24 10:48:08;;;;;;;17.27;2.45;;;;;;;14.37;96.30;100186.75;5034899;28;20044;-80
2021/10/24 10:50:43;;;;;;;15.48;2.60;;;;;;;14.93;94.30;100169.81;5018814;28;20532;-81
2021/10/24 10:53:39;;;;;;;10.73;2.22;;;;;;;15.47;92.92;100196.47;5034837;28;20076;-83
2021/10/24 10:56:05;;;;;;;10.23;2.20;;;;;;;15.56;92.12;100195.16;5034980;28;20033;-81
2021/10/24 10:58:40;;;;;;;17.30;2.70;;;;;;;15.05;93.77;100199.69;5034818;28;20496;-83
2021/10/24 11:01:29;;;;;;;14.90;2.30;;;;;;;14.62;94.47;100194.13;5034797;28;20029;-81
2021/10/24 11:04:12;;;;;;;11.80;2.15;;;;;;;14.65;95.63;100199.94;5034432;28;20394;-82
2021/10/24 11:06:38;;;;;;;16.65;2.22;;;;;;;14.91;93.99;100196.25;5017990;28;20037;-82
2021/10/24 11:09:05;;;;;;;14.98;2.40;;;;;;;15.25;92.37;100194.16;5018059;28;20032;-82
2021/10/24 11:11:44;;;;;;;13.23;1.92;;;;;;;15.76;90.98;100194.97;5034743;28;20106;-83
2021/10/24 11:14:15;;;;;;;12.35;2.33;;;;;;;16.54;88.61;100194.31;5034015;28;20072;-83
2021/10/24 11:16:51;;;;;;;15.50;2.72;;;;;;;16.45;85.54;100190.22;5034698;28;20036;-82
2021/10/24 11:19:26;;;;;;;11.25;1.73;;;;;;;17.19;84.82;100203.63;5034417;28;20090;-82
2021/10/24 11:21:53;;;;;;;10.80;1.90;;;;;;;17.70;83.69;100202.16;5034408;28;20064;-81
2021/10/24 11:24:19;;;;;;;10.13;2.15;;;;;;;16.74;84.96;100190.47;5001452;28;20040;-81
2021/10/24 11:26:55;;;;;;;10.07;1.58;;;;;;;16.45;87.31;100207.34;5001044;28;20081;-83